Time;durP1;ratioP1;P1;durP2;ratioP2;P2;SDS_P1;SDS_P2;PMS_P1;PMS_P2;Temp;Humidity;BMP_temperature;BMP_pressure;BME280_temperature;BME280_humidity;BME280_pressure;Samples;Min_cycle;Max_cycle;Signal;HPM_P1;HPM_P2
2022/04/23 00:02:13;;;;;;;4.50;3.47;;;13.30;99.90;;;;;;5049534;28;20215;-70
2022/04/23 00:04:40;;;;;;;7.43;3.40;;;13.20;99.90;;;;;;5040688;28;20547;-70
2022/04/23 00:07:06;;;;;;;6.83;3.57;;;13.20;99.90;;;;;;5049420;28;20850;-70
2022/04/23 00:09:34;;;;;;;6.17;3.10;;;13.20;99.90;;;;;;5052228;28;20223;-70
2022/04/23 00:12:04;;;;;;;7.13;3.67;;;13.20;99.90;;;;;;5031056;28;20191;-70
2022/04/23 00:14:31;;;;;;;7.30;3.13;;;13.20;99.90;;;;;;5046751;28;20180;-70
2022/04/23 00:17:00;;;;;;;3.77;3.27;;;13.10;99.90;;;;;;5044043;28;20188;-70
2022/04/23 00:19:26;;;;;;;6.37;3.33;;;13.10;99.90;;;;;;5047167;28;20195;-70
2022/04/23 00:21:55;;;;;;;10.40;3.20;;;13.10;99.90;;;;;;5043882;28;20199;-70
2022/04/23 00:24:23;;;;;;;5.63;3.40;;;13.10;99.90;;;;;;5045129;28;20656;-70
2022/04/23 00:26:52;;;;;;;5.27;3.37;;;13.10;99.90;;;;;;5042437;28;20668;-70
2022/04/23 00:29:18;;;;;;;3.97;2.87;;;13.10;99.90;;;;;;5033572;28;20219;-70
2022/04/23 00:31:45;;;;;;;3.87;2.93;;;13.00;99.90;;;;;;5046473;28;20231;-70
2022/04/23 00:34:13;;;;;;;4.50;3.17;;;13.00;99.90;;;;;;5048294;28;20245;-70
2022/04/23 00:36:40;;;;;;;4.23;3.03;;;13.00;99.90;;;;;;5047745;28;20196;-70
2022/04/23 00:39:07;;;;;;;4.50;3.03;;;13.00;99.90;;;;;;5031219;28;20220;-70
2022/04/23 00:41:51;;;;;;;5.23;3.30;;;13.00;99.90;;;;;;5031995;28;20298;-70
2022/04/23 00:44:18;;;;;;;6.27;3.27;;;12.90;99.90;;;;;;5049018;28;20203;-70
2022/04/23 00:46:45;;;;;;;6.73;3.77;;;12.90;99.90;;;;;;5036030;28;20195;-70
2022/04/23 00:49:13;;;;;;;5.33;3.10;;;12.90;99.90;;;;;;5046258;28;20229;-70
2022/04/23 00:51:41;;;;;;;7.50;3.40;;;12.90;99.90;;;;;;5031474;28;20229;-70
2022/04/23 00:54:10;;;;;;;8.10;3.70;;;12.90;99.90;;;;;;5038010;28;20188;-71
2022/04/23 00:56:40;;;;;;;7.33;2.93;;;12.90;99.90;;;;;;5051639;28;20188;-70
2022/04/23 00:59:13;;;;;;;8.10;3.60;;;12.90;99.90;;;;;;5039020;28;20727;-70
2022/04/23 01:01:43;;;;;;;7.30;3.53;;;12.90;99.90;;;;;;5043105;28;20202;-70
2022/04/23 01:04:12;;;;;;;6.53;3.20;;;12.90;99.90;;;;;;5036451;28;20211;-70
2022/04/23 01:06:39;;;;;;;4.50;2.90;;;12.90;99.90;;;;;;5038785;28;20898;-70
2022/04/23 01:09:08;;;;;;;5.30;3.30;;;12.80;99.90;;;;;;5043162;28;20328;-70
2022/04/23 01:11:37;;;;;;;5.23;3.17;;;12.90;99.90;;;;;;5049495;28;20260;-70
2022/04/23 01:14:05;;;;;;;4.93;3.20;;;12.90;99.90;;;;;;5041471;28;20187;-70
2022/04/23 01:16:32;;;;;;;3.30;3.00;;;12.80;99.90;;;;;;5037981;28;20204;-70
2022/04/23 01:18:59;;;;;;;5.93;3.00;;;12.90;99.90;;;;;;5043426;28;20183;-70
2022/04/23 01:21:26;;;;;;;6.87;3.10;;;12.80;99.90;;;;;;5025945;28;20188;-70
2022/04/23 01:23:56;;;;;;;4.67;2.97;;;12.80;99.90;;;;;;5028071;28;20199;-70
2022/04/23 01:26:32;;;;;;;3.50;2.83;;;12.80;99.90;;;;;;5042500;28;20262;-70
2022/04/23 01:29:00;;;;;;;6.10;3.07;;;12.80;99.90;;;;;;5028953;28;20219;-70
2022/04/23 01:31:27;;;;;;;3.57;3.07;;;12.80;99.90;;;;;;5032638;28;20275;-70
2022/04/23 01:33:55;;;;;;;6.27;3.00;;;12.80;99.90;;;;;;5044187;28;20181;-70
2022/04/23 01:36:24;;;;;;;6.93;3.30;;;12.80;99.90;;;;;;5032679;28;20549;-70
2022/04/23 01:38:51;;;;;;;4.47;3.00;;;12.80;99.90;;;;;;5038178;28;20195;-71
2022/04/23 01:41:18;;;;;;;4.17;3.10;;;12.90;99.90;;;;;;5048664;28;20548;-70
2022/04/23 01:43:44;;;;;;;3.50;2.70;;;12.90;99.90;;;;;;5046170;28;20199;-70
2022/04/23 01:46:11;;;;;;;7.30;2.80;;;12.80;99.90;;;;;;5041028;28;20246;-70
2022/04/23 01:48:38;;;;;;;3.33;2.80;;;12.80;99.90;;;;;;5039856;28;20219;-70
2022/04/23 01:51:04;;;;;;;7.07;3.10;;;12.90;99.90;;;;;;5045908;28;20219;-71
2022/04/23 01:53:31;;;;;;;5.60;2.67;;;12.90;99.90;;;;;;5045785;28;20198;-70
2022/04/23 01:55:57;;;;;;;6.00;2.97;;;12.90;99.90;;;;;;5035192;28;20263;-70
2022/04/23 01:58:25;;;;;;;4.33;3.00;;;12.80;99.90;;;;;;5044466;28;20187;-70
2022/04/23 02:00:52;;;;;;;4.13;2.57;;;12.80;99.90;;;;;;5032939;28;20199;-70
2022/04/23 02:03:19;;;;;;;4.57;3.03;;;12.80;99.90;;;;;;5040010;28;20262;-70
2022/04/23 02:05:45;;;;;;;2.67;2.40;;;12.80;99.90;;;;;;5042500;28;20678;-70
2022/04/23 02:08:17;;;;;;;7.93;2.90;;;12.80;99.90;;;;;;5036442;28;20719;-70
2022/04/23 02:10:43;;;;;;;2.93;2.63;;;12.80;99.90;;;;;;5055228;28;20216;-70
2022/04/23 02:13:11;;;;;;;5.33;2.47;;;12.80;99.90;;;;;;5038739;28;20184;-70
2022/04/23 02:15:40;;;;;;;6.67;2.60;;;12.80;99.90;;;;;;5037904;28;20223;-70
2022/04/23 02:18:08;;;;;;;4.00;2.43;;;12.80;99.90;;;;;;5044776;28;20621;-70
2022/04/23 02:20:37;;;;;;;7.60;3.13;;;12.80;99.90;;;;;;5043231;28;20193;-70
2022/04/23 02:23:23;;;;;;;3.73;2.53;;;12.80;99.90;;;;;;5025665;28;20230;-70
2022/04/23 02:25:49;;;;;;;3.47;2.30;;;12.80;99.90;;;;;;5041861;28;20847;-70
2022/04/23 02:28:17;;;;;;;3.10;2.37;;;12.80;99.90;;;;;;5047525;28;20219;-70
2022/04/23 02:30:44;;;;;;;4.57;2.57;;;12.80;99.90;;;;;;5026126;28;20693;-70
2022/04/23 02:33:13;;;;;;;3.53;2.33;;;12.80;99.90;;;;;;5042767;28;20266;-70
2022/04/23 02:35:40;;;;;;;4.07;2.50;;;12.80;99.90;;;;;;5045135;28;20306;-70
2022/04/23 02:38:10;;;;;;;4.43;2.63;;;12.80;99.90;;;;;;5045751;28;20671;-70
2022/04/23 02:40:38;;;;;;;8.00;2.40;;;12.80;99.90;;;;;;5029010;28;20192;-70
2022/04/23 02:43:05;;;;;;;4.20;2.30;;;12.70;99.90;;;;;;5032971;28;20192;-70
2022/04/23 02:45:32;;;;;;;3.73;2.30;;;12.80;99.90;;;;;;5036694;28;20230;-70
2022/04/23 02:47:59;;;;;;;5.83;2.40;;;12.70;99.90;;;;;;5047861;28;20525;-70
2022/04/23 02:50:37;;;;;;;6.63;2.30;;;12.70;99.90;;;;;;5022218;28;20215;-70
2022/04/23 02:53:08;;;;;;;3.40;2.20;;;12.70;99.90;;;;;;5038179;28;20203;-70
2022/04/23 02:55:36;;;;;;;4.77;2.60;;;12.70;99.90;;;;;;5054424;28;20195;-70
2022/04/23 02:58:11;;;;;;;3.83;2.20;;;12.70;99.90;;;;;;5045742;28;20193;-70
2022/04/23 03:00:41;;;;;;;6.00;2.20;;;12.70;99.90;;;;;;5045471;28;20786;-69
2022/04/23 03:03:11;;;;;;;3.13;2.57;;;12.70;99.90;;;;;;5043854;28;20192;-70
2022/04/23 03:05:42;;;;;;;3.30;2.30;;;12.70;99.90;;;;;;5045438;28;20188;-70
2022/04/23 03:08:11;;;;;;;5.27;2.40;;;12.70;99.90;;;;;;5046251;28;20200;-70
2022/04/23 03:10:42;;;;;;;8.23;2.67;;;12.70;99.90;;;;;;5029351;28;20304;-70
2022/04/23 03:13:09;;;;;;;5.77;2.83;;;12.70;99.90;;;;;;5026894;28;20184;-69
2022/04/23 03:15:39;;;;;;;5.60;2.70;;;12.70;99.90;;;;;;5049002;28;20179;-70
2022/04/23 03:18:13;;;;;;;6.07;2.53;;;12.70;99.90;;;;;;5029066;28;20212;-70
2022/04/23 03:20:42;;;;;;;5.30;2.50;;;12.60;99.90;;;;;;5026423;28;20187;-70
2022/04/23 03:23:12;;;;;;;4.27;2.37;;;12.70;99.90;;;;;;5037312;28;20345;-70
2022/04/23 03:25:40;;;;;;;6.33;2.70;;;12.60;99.90;;;;;;5032508;28;20237;-70
2022/04/23 03:28:07;;;;;;;5.73;2.40;;;12.70;99.90;;;;;;5058964;28;20238;-71
2022/04/23 03:30:33;;;;;;;6.33;2.57;;;12.60;99.90;;;;;;5039442;28;20219;-70
2022/04/23 03:33:00;;;;;;;7.20;2.43;;;12.60;99.90;;;;;;5025158;28;20211;-71
2022/04/23 03:35:28;;;;;;;4.83;2.50;;;12.60;99.90;;;;;;5036914;28;20208;-70
2022/04/23 03:37:59;;;;;;;5.60;2.50;;;12.60;99.90;;;;;;5042781;28;20288;-70
2022/04/23 03:40:25;;;;;;;3.03;2.20;;;12.60;99.90;;;;;;5047886;28;20664;-70
2022/04/23 03:42:54;;;;;;;6.77;2.73;;;12.60;99.90;;;;;;5043648;28;20537;-70
2022/04/23 03:45:22;;;;;;;4.90;2.60;;;12.60;99.90;;;;;;5034789;28;20290;-70
2022/04/23 03:47:50;;;;;;;3.77;2.60;;;12.60;99.90;;;;;;5049017;28;20253;-70
2022/04/23 03:50:18;;;;;;;5.73;2.93;;;12.60;99.90;;;;;;5024966;28;20215;-70
2022/04/23 03:52:44;;;;;;;7.83;2.93;;;12.60;99.90;;;;;;5038432;28;20231;-70
2022/04/23 03:55:11;;;;;;;4.50;2.57;;;12.60;99.90;;;;;;5046140;28;20188;-70
2022/04/23 03:57:51;;;;;;;2.93;2.53;;;12.70;99.90;;;;;;5041348;28;20286;-70
2022/04/23 04:00:22;;;;;;;11.37;3.00;;;12.70;99.90;;;;;;5041358;28;20192;-70
2022/04/23 04:02:50;;;;;;;4.03;2.60;;;12.70;99.90;;;;;;5032248;28;20191;-70
2022/04/23 04:05:18;;;;;;;5.03;3.20;;;12.70;99.90;;;;;;5035208;28;20638;-70
2022/04/23 04:07:47;;;;;;;9.90;2.83;;;12.60;99.90;;;;;;5036279;28;20199;-70
2022/04/23 04:10:21;;;;;;;7.30;3.20;;;12.70;99.90;;;;;;5043402;28;20212;-70
2022/04/23 04:12:49;;;;;;;7.93;3.10;;;12.70;99.90;;;;;;5039972;28;20192;-69
2022/04/23 04:15:20;;;;;;;5.90;3.07;;;12.70;99.90;;;;;;5047870;28;20192;-70
2022/04/23 04:17:52;;;;;;;7.30;3.10;;;12.70;99.90;;;;;;5033061;28;20187;-70
2022/04/23 04:20:22;;;;;;;3.17;2.87;;;12.70;99.90;;;;;;5030426;28;20203;-70
2022/04/23 04:22:50;;;;;;;6.93;2.90;;;12.70;99.90;;;;;;5048253;28;20202;-70
2022/04/23 04:25:17;;;;;;;6.27;2.90;;;12.70;99.90;;;;;;5043492;28;20207;-70
2022/04/23 04:27:43;;;;;;;4.37;2.80;;;12.70;99.90;;;;;;5048108;28;20644;-70
2022/04/23 04:30:12;;;;;;;7.17;3.27;;;12.70;99.90;;;;;;5046123;28;20660;-69
2022/04/23 04:32:42;;;;;;;5.77;3.10;;;12.70;99.90;;;;;;5045651;28;20207;-70
2022/04/23 04:35:10;;;;;;;7.20;3.13;;;12.70;99.90;;;;;;5056917;28;20598;-70
2022/04/23 04:37:37;;;;;;;4.83;3.20;;;12.70;99.90;;;;;;5040231;28;20227;-70
2022/04/23 04:40:07;;;;;;;8.90;2.93;;;12.70;99.90;;;;;;5047750;28;20200;-70
2022/04/23 04:42:35;;;;;;;3.93;2.70;;;12.70;99.90;;;;;;5045373;28;20318;-69
2022/04/23 04:45:08;;;;;;;6.13;3.30;;;12.70;99.90;;;;;;5046545;28;20204;-70
2022/04/23 04:47:34;;;;;;;5.23;3.10;;;12.70;99.90;;;;;;5050965;28;20188;-69
2022/04/23 04:50:01;;;;;;;6.20;3.00;;;12.80;99.90;;;;;;5049346;28;20880;-70
2022/04/23 04:52:29;;;;;;;8.17;2.97;;;12.70;99.90;;;;;;5047806;28;20636;-70
2022/04/23 04:54:55;;;;;;;5.80;3.30;;;12.80;99.90;;;;;;5039759;28;20188;-70
2022/04/23 04:57:22;;;;;;;8.40;3.40;;;12.80;99.90;;;;;;5047255;28;20188;-69
2022/04/23 04:59:50;;;;;;;7.50;3.07;;;12.80;99.90;;;;;;5028524;28;20298;-70
2022/04/23 05:02:16;;;;;;;4.13;3.60;;;12.90;99.90;;;;;;5030209;28;20196;-70
2022/04/23 05:04:42;;;;;;;5.07;3.60;;;12.90;99.90;;;;;;5043187;28;20194;-70
2022/04/23 05:07:10;;;;;;;5.80;4.40;;;12.90;99.90;;;;;;5025132;28;20205;-70
2022/04/23 05:09:38;;;;;;;7.90;3.80;;;13.00;99.90;;;;;;5047694;28;20226;-70
2022/04/23 05:12:08;;;;;;;5.03;3.40;;;13.00;99.90;;;;;;5026205;28;20180;-70
2022/04/23 05:14:35;;;;;;;5.77;3.93;;;13.10;99.90;;;;;;5036687;28;20230;-71
2022/04/23 05:17:08;;;;;;;4.87;3.83;;;13.10;99.90;;;;;;5040600;28;20521;-70
2022/04/23 05:19:34;;;;;;;6.13;3.97;;;13.10;99.90;;;;;;5029673;28;20196;-70
2022/04/23 05:22:02;;;;;;;9.00;3.73;;;13.20;99.90;;;;;;5037606;28;20204;-70
2022/04/23 05:24:29;;;;;;;6.67;3.27;;;13.20;99.90;;;;;;5046571;28;20200;-71
2022/04/23 05:26:57;;;;;;;6.87;3.33;;;13.20;99.90;;;;;;5043662;28;20195;-70
2022/04/23 05:29:24;;;;;;;5.13;2.80;;;13.30;99.90;;;;;;5045807;28;20207;-70
2022/04/23 05:31:54;;;;;;;4.70;3.30;;;13.30;99.90;;;;;;5038366;28;20206;-70
2022/04/23 05:34:20;;;;;;;7.23;3.90;;;13.30;99.90;;;;;;5040311;28;20278;-70
2022/04/23 05:36:47;;;;;;;6.73;3.70;;;13.30;99.90;;;;;;5036642;28;20192;-71
2022/04/23 05:39:14;;;;;;;4.63;3.10;;;13.40;99.90;;;;;;5030846;28;20187;-70
2022/04/23 05:41:40;;;;;;;4.57;2.90;;;13.40;99.90;;;;;;5050802;28;20191;-70
2022/04/23 05:44:07;;;;;;;3.63;2.70;;;13.50;99.90;;;;;;5046558;28;20282;-70
2022/04/23 05:46:33;;;;;;;5.07;3.00;;;13.50;99.90;;;;;;5050263;28;20612;-70
2022/04/23 05:49:00;;;;;;;4.93;2.67;;;13.60;99.90;;;;;;5044043;28;20220;-71
2022/04/23 05:51:26;;;;;;;6.37;2.77;;;13.50;99.90;;;;;;5041336;28;20192;-70
2022/04/23 05:53:52;;;;;;;4.60;2.60;;;13.60;99.90;;;;;;5037921;28;20193;-70
2022/04/23 05:56:19;;;;;;;3.60;2.87;;;13.70;99.90;;;;;;5048334;28;20724;-71
2022/04/23 05:58:46;;;;;;;5.73;3.50;;;13.70;99.90;;;;;;5047023;28;20705;-71
2022/04/23 06:01:13;;;;;;;5.07;3.53;;;13.80;99.90;;;;;;5028783;28;20192;-70
2022/04/23 06:03:41;;;;;;;6.77;3.20;;;13.80;99.90;;;;;;5043279;28;20270;-70
2022/04/23 06:06:07;;;;;;;5.33;3.10;;;13.90;99.90;;;;;;5030757;28;20279;-70
2022/04/23 06:08:42;;;;;;;3.30;2.70;;;13.80;99.90;;;;;;5045410;28;20195;-70
2022/04/23 06:11:09;;;;;;;5.43;3.17;;;14.00;99.90;;;;;;5031395;28;21381;-71
2022/04/23 06:13:38;;;;;;;4.77;3.20;;;13.90;99.90;;;;;;5036803;28;20190;-70
2022/04/23 06:16:06;;;;;;;4.03;2.70;;;14.00;99.90;;;;;;5044676;28;20242;-70
2022/04/23 06:18:32;;;;;;;5.57;3.57;;;14.10;99.90;;;;;;5040423;28;20528;-70
2022/04/23 06:20:59;;;;;;;6.87;2.90;;;14.10;99.90;;;;;;5041263;28;20423;-71
2022/04/23 06:23:25;;;;;;;5.30;2.63;;;14.10;99.90;;;;;;5039035;28;20220;-71
2022/04/23 06:25:55;;;;;;;5.83;3.23;;;14.20;99.90;;;;;;5043707;28;20226;-71
2022/04/23 06:28:21;;;;;;;5.77;3.20;;;14.30;99.90;;;;;;5033140;28;20191;-71
2022/04/23 06:30:48;;;;;;;6.90;3.23;;;14.30;99.90;;;;;;5034159;28;20577;-70
2022/04/23 06:33:15;;;;;;;5.93;3.10;;;14.30;99.90;;;;;;5030962;28;20211;-70
2022/04/23 06:35:41;;;;;;;6.40;3.23;;;14.40;99.90;;;;;;5044603;28;20274;-70
2022/04/23 06:38:08;;;;;;;6.47;3.10;;;14.40;99.90;;;;;;5043308;28;20577;-71
2022/04/23 06:40:35;;;;;;;8.13;3.30;;;14.60;99.90;;;;;;5029414;28;20275;-71
2022/04/23 06:43:02;;;;;;;5.60;4.03;;;14.60;99.90;;;;;;5041430;28;20196;-70
2022/04/23 06:45:28;;;;;;;5.97;3.10;;;14.60;99.90;;;;;;5043271;28;20207;-70
2022/04/23 06:48:04;;;;;;;4.50;2.73;;;14.70;99.90;;;;;;5041496;28;20279;-71
2022/04/23 06:50:36;;;;;;;4.83;2.80;;;14.70;99.90;;;;;;5026309;28;20219;-70
2022/04/23 06:53:04;;;;;;;4.97;3.00;;;14.80;99.90;;;;;;5030820;28;20273;-71
2022/04/23 06:55:31;;;;;;;12.37;3.10;;;14.80;99.90;;;;;;5044956;28;20235;-71
2022/04/23 06:58:00;;;;;;;5.03;2.77;;;14.90;99.90;;;;;;5031224;28;20184;-71
2022/04/23 07:00:27;;;;;;;6.07;3.30;;;15.00;99.90;;;;;;5012998;28;20195;-71
2022/04/23 07:02:54;;;;;;;6.13;4.77;;;15.10;99.90;;;;;;5022175;28;20540;-71
2022/04/23 07:05:22;;;;;;;6.87;3.60;;;15.10;99.90;;;;;;5038726;28;20864;-71
2022/04/23 07:08:01;;;;;;;8.73;3.10;;;15.20;99.90;;;;;;5049036;28;20200;-71
2022/04/23 07:10:32;;;;;;;6.57;2.80;;;15.40;99.90;;;;;;5039530;28;20211;-71
2022/04/23 07:13:00;;;;;;;7.37;2.77;;;15.40;99.90;;;;;;5048282;28;20256;-71
2022/04/23 07:15:29;;;;;;;5.63;3.10;;;15.40;99.90;;;;;;5044934;28;20195;-71
2022/04/23 07:18:02;;;;;;;7.47;3.07;;;15.70;99.90;;;;;;5037345;28;20196;-71
2022/04/23 07:20:28;;;;;;;7.17;2.90;;;15.60;99.90;;;;;;5049155;28;20197;-71
2022/04/23 07:25:40;;;;;;;5.33;2.70;;;15.70;99.90;;;;;;5038355;28;20199;-71
2022/04/23 07:28:13;;;;;;;4.97;2.60;;;15.80;99.90;;;;;;5029836;28;20202;-71
2022/04/23 07:30:46;;;;;;;3.93;2.60;;;15.90;99.90;;;;;;5046735;28;20215;-71
2022/04/23 07:37:28;;;;;;;5.47;2.80;;;16.10;99.90;;;;;;5042483;28;20261;-71
2022/04/23 07:38:51;;;;;;;4.43;2.80;;;16.20;99.90;;;;;;5046115;28;20887;-71
2022/04/23 07:41:18;;;;;;;4.53;2.40;;;16.30;99.90;;;;;;5038761;28;20729;-71
2022/04/23 07:43:45;;;;;;;3.77;2.60;;;16.30;99.90;;;;;;5030599;28;20664;-72
2022/04/23 07:46:11;;;;;;;6.77;2.50;;;16.40;99.90;;;;;;5033306;28;20194;-71
2022/04/23 07:48:37;;;;;;;3.50;2.37;;;16.50;99.90;;;;;;5031434;28;20215;-71
2022/04/23 07:51:05;;;;;;;4.93;2.50;;;16.60;99.90;;;;;;5039659;28;20653;-71
2022/04/23 07:53:34;;;;;;;4.07;2.60;;;16.70;99.90;;;;;;5041494;28;20239;-71
2022/04/23 07:56:00;;;;;;;6.27;2.20;;;16.70;99.90;;;;;;5028582;28;20190;-71
2022/04/23 07:58:27;;;;;;;4.87;2.70;;;16.90;99.90;;;;;;5035267;28;20199;-71
2022/04/23 08:00:55;;;;;;;4.03;2.67;;;16.90;99.90;;;;;;5045147;28;20204;-71
2022/04/23 08:03:22;;;;;;;4.97;3.03;;;17.00;99.90;;;;;;5047210;28;20195;-71
2022/04/23 08:05:51;;;;;;;6.77;2.93;;;17.20;99.90;;;;;;5029966;28;20211;-71
2022/04/23 08:08:19;;;;;;;6.80;3.47;;;17.30;99.90;;;;;;5060601;28;20652;-71
2022/04/23 08:10:47;;;;;;;4.33;2.70;;;17.30;99.90;;;;;;5030128;28;20223;-71
2022/04/23 08:13:14;;;;;;;5.37;3.00;;;17.40;99.90;;;;;;5030510;28;20187;-71
2022/04/23 08:15:45;;;;;;;5.47;2.73;;;17.40;99.90;;;;;;5044579;28;20191;-71
2022/04/23 08:18:20;;;;;;;6.10;3.17;;;17.50;99.90;;;;;;5020058;28;20184;-71
2022/04/23 08:20:48;;;;;;;4.50;2.90;;;17.50;99.90;;;;;;5041123;28;20241;-71
2022/04/23 08:23:16;;;;;;;7.27;3.10;;;17.70;99.90;;;;;;5032178;28;20194;-71
2022/04/23 08:25:44;;;;;;;3.83;2.50;;;17.70;99.90;;;;;;5030736;28;20572;-71
2022/04/23 08:31:03;;;;;;;6.13;2.60;;;17.90;99.90;;;;;;5047780;28;20214;-71
2022/04/23 08:33:57;;;;;;;3.13;2.40;;;18.10;99.90;;;;;;5020596;28;20212;-73
2022/04/23 08:36:19;;;;;;;3.57;2.60;;;18.30;99.90;;;;;;5044587;28;20239;-71
2022/04/23 08:38:45;;;;;;;4.07;2.40;;;18.30;99.90;;;;;;5027097;28;20210;-71
2022/04/23 08:41:14;;;;;;;5.20;2.70;;;18.40;99.90;;;;;;5021646;28;21651;-71
2022/04/23 08:43:41;;;;;;;6.93;2.93;;;18.40;99.90;;;;;;5043684;28;20666;-71
2022/04/23 08:46:11;;;;;;;4.33;2.67;;;18.60;99.90;;;;;;5029358;28;20290;-71
2022/04/23 08:48:42;;;;;;;5.87;3.10;;;18.80;99.90;;;;;;5036924;28;20203;-71
2022/04/23 08:51:18;;;;;;;5.90;2.87;;;18.90;99.90;;;;;;5047016;28;20688;-71
2022/04/23 08:53:51;;;;;;;5.83;3.00;;;19.00;99.90;;;;;;5030764;28;20220;-71
2022/04/23 08:56:20;;;;;;;6.30;3.00;;;19.20;99.90;;;;;;5034832;28;20191;-72
2022/04/23 08:58:56;;;;;;;4.37;2.40;;;19.30;99.90;;;;;;5041711;28;20802;-71
2022/04/23 09:01:23;;;;;;;5.23;3.10;;;19.40;99.90;;;;;;5045511;28;20256;-71
2022/04/23 09:03:49;;;;;;;4.57;2.60;;;19.40;99.90;;;;;;5042786;28;20203;-71
2022/04/23 09:06:16;;;;;;;9.20;6.40;;;19.50;99.90;;;;;;5037097;28;20946;-72
2022/04/23 09:09:22;;;;;;;5.93;3.23;;;19.60;99.90;;;;;;5024619;28;20200;-72
2022/04/23 09:11:56;;;;;;;5.23;3.07;;;19.60;99.90;;;;;;5013339;28;20190;-71
2022/04/23 09:14:32;;;;;;;6.47;3.07;;;19.80;99.90;;;;;;5046300;28;20270;-72
2022/04/23 09:25:47;;;;;;;8.63;2.90;;;20.20;99.90;;;;;;5041665;28;20231;-72
2022/04/23 09:28:24;;;;;;;4.80;2.70;;;20.30;99.90;;;;;;5039600;28;20195;-72
2022/04/23 09:30:58;;;;;;;6.97;5.15;;;20.50;99.90;;;;;;5026521;28;20218;-72
2022/04/23 09:33:42;;;;;;;5.77;3.50;;;20.60;99.90;;;;;;5041141;28;20222;-71
2022/04/23 09:36:09;;;;;;;6.70;3.20;;;20.70;99.90;;;;;;5039672;28;20202;-72
2022/04/23 09:38:35;;;;;;;4.90;3.60;;;20.80;99.90;;;;;;5042601;28;20187;-72
2022/04/23 09:41:16;;;;;;;5.78;2.90;;;21.00;99.90;;;;;;5045704;28;20195;-71
2022/04/23 09:43:45;;;;;;;5.82;3.05;;;21.10;99.90;;;;;;5032774;28;20231;-72
2022/04/23 09:46:19;;;;;;;4.25;2.90;;;21.20;99.90;;;;;;5023999;28;20276;-72
2022/04/23 09:49:03;;;;;;;7.15;3.20;;;21.30;99.90;;;;;;5045325;28;21232;-72
2022/04/23 09:51:30;;;;;;;8.02;3.08;;;21.50;99.90;;;;;;5039419;28;20687;-72
2022/04/23 09:53:57;;;;;;;6.38;3.10;;;21.60;99.90;;;;;;5037484;28;20216;-72
2022/04/23 09:56:27;;;;;;;4.40;2.95;;;21.80;99.90;;;;;;5040736;28;20195;-72
2022/04/23 09:58:56;;;;;;;4.07;2.90;;;21.80;99.90;;;;;;5019820;28;20279;-72
2022/04/23 10:01:24;;;;;;;4.95;3.20;;;21.90;99.90;;;;;;5027109;28;20188;-72
2022/04/23 10:03:54;;;;;;;8.55;2.90;;;22.10;99.90;;;;;;5029063;28;20176;-72
2022/04/23 10:06:24;;;;;;;7.03;3.22;;;22.20;99.90;;;;;;5042545;28;20191;-72
2022/04/23 10:08:57;;;;;;;7.53;3.30;;;22.30;99.90;;;;;;5036420;28;20183;-72
2022/04/23 10:11:31;;;;;;;4.97;2.83;;;22.30;99.90;;;;;;5032970;28;20195;-72
2022/04/23 10:14:10;;;;;;;5.30;3.00;;;22.40;99.90;;;;;;5053914;28;20249;-72
2022/04/23 10:16:42;;;;;;;4.97;3.05;;;22.40;99.90;;;;;;5036879;28;20183;-75
2022/04/23 10:19:11;;;;;;;9.10;3.05;;;22.40;99.90;;;;;;5023719;28;20249;-71
2022/04/23 10:22:11;;;;;;;9.95;2.85;;;22.50;99.90;;;;;;5034840;28;20238;-72
2022/04/23 10:25:11;;;;;;;5.28;2.70;;;22.50;99.90;;;;;;5025728;28;21135;-72
2022/04/23 10:27:39;;;;;;;5.38;2.83;;;22.60;99.90;;;;;;5035814;28;20900;-73
2022/04/23 10:30:12;;;;;;;4.40;3.00;;;22.60;99.90;;;;;;5039660;28;20204;-72
2022/04/23 10:32:43;;;;;;;4.78;2.78;;;22.60;99.90;;;;;;5034625;28;20207;-72
2022/04/23 10:35:19;;;;;;;9.15;4.80;;;22.70;99.90;;;;;;5025722;28;20187;-71
2022/04/23 10:37:50;;;;;;;5.78;3.05;;;22.70;99.90;;;;;;5025298;28;20188;-72
2022/04/23 10:40:25;;;;;;;5.47;2.65;;;22.80;99.90;;;;;;5042069;28;20199;-73
2022/04/23 10:43:09;;;;;;;3.40;2.58;;;22.80;99.90;;;;;;5020722;28;20183;-71
2022/04/23 10:45:41;;;;;;;9.95;2.88;;;22.80;99.90;;;;;;5043485;28;20199;-72
2022/04/23 10:48:28;;;;;;;8.00;3.00;;;22.80;99.90;;;;;;5056188;28;20283;-72
2022/04/23 10:51:20;;;;;;;7.05;3.30;;;22.80;99.90;;;;;;5041096;28;20207;-72
2022/04/23 10:53:50;;;;;;;4.60;2.90;;;22.90;99.90;;;;;;5021524;28;20195;-72
2022/04/23 10:56:19;;;;;;;5.80;3.10;;;22.90;99.90;;;;;;5045514;28;20218;-73
2022/04/23 10:58:47;;;;;;;8.00;4.82;;;22.90;99.90;;;;;;5037859;28;20192;-73
2022/04/23 11:01:30;;;;;;;7.35;4.60;;;23.00;99.90;;;;;;5038504;28;20182;-73
2022/04/23 11:03:57;;;;;;;6.80;4.00;;;23.00;99.90;;;;;;5031816;28;20187;-73
2022/04/23 11:12:33;;;;;;;9.00;3.35;;;23.00;99.90;;;;;;5051298;28;20280;-73
2022/04/23 11:15:11;;;;;;;7.93;3.13;;;23.10;99.90;;;;;;5025413;28;20195;-72
2022/04/23 11:17:45;;;;;;;10.15;3.80;;;23.10;99.90;;;;;;5036382;28;20196;-72
2022/04/23 11:20:38;;;;;;;5.90;3.10;;;23.00;99.90;;;;;;5038812;28;20188;-72
2022/04/23 11:23:08;;;;;;;6.72;3.15;;;24.00;99.90;;;;;;5042097;28;20193;-72
2022/04/23 11:25:34;;;;;;;9.98;3.63;;;23.20;99.90;;;;;;5018247;28;20246;-72
2022/04/23 11:28:21;;;;;;;4.97;2.92;;;23.20;99.90;;;;;;5033495;28;20195;-73
2022/04/23 11:30:52;;;;;;;8.02;3.13;;;23.20;99.90;;;;;;5033818;28;20215;-72
2022/04/23 11:33:25;;;;;;;10.82;3.10;;;23.20;99.90;;;;;;5043695;28;20250;-72
2022/04/23 11:35:58;;;;;;;4.97;3.15;;;23.20;99.90;;;;;;5050005;28;20208;-72
2022/04/23 11:38:26;;;;;;;10.20;2.88;;;23.30;99.90;;;;;;5041961;28;20290;-72
2022/04/23 11:40:53;;;;;;;11.13;3.08;;;23.30;99.90;;;;;;5036322;28;20198;-71
2022/04/23 11:43:33;;;;;;;5.68;2.67;;;23.40;99.90;;;;;;5040136;28;20315;-72
2022/04/23 11:46:08;;;;;;;3.95;2.63;;;23.40;99.90;;;;;;5037407;28;20199;-72
2022/04/23 11:48:50;;;;;;;4.40;2.60;;;23.30;99.90;;;;;;5045880;28;20191;-71
2022/04/23 11:51:34;;;;;;;5.68;2.70;;;23.40;99.90;;;;;;5037983;28;20195;-74
2022/04/23 11:54:00;;;;;;;6.20;2.50;;;23.40;99.90;;;;;;5020436;28;20545;-74
2022/04/23 11:56:36;;;;;;;6.18;2.72;;;23.40;99.90;;;;;;5025085;28;20191;-74
2022/04/23 11:59:11;;;;;;;7.25;2.97;;;23.50;99.90;;;;;;5020331;28;20193;-71
2022/04/23 12:01:38;;;;;;;7.35;2.70;;;;;;;;;;5034125;28;20229;-72
2022/04/23 12:04:05;;;;;;;7.05;3.30;;;23.50;99.90;;;;;;5040837;28;20185;-73
2022/04/23 12:06:44;;;;;;;8.10;3.05;;;23.50;99.90;;;;;;5035157;28;20189;-72
2022/04/23 12:09:12;;;;;;;9.75;4.07;;;23.50;99.90;;;;;;5033961;28;20218;-73
2022/04/23 12:11:39;;;;;;;4.50;3.75;;;23.50;99.90;;;;;;5034349;28;20180;-74
2022/04/23 12:14:09;;;;;;;10.13;3.05;;;23.50;99.90;;;;;;5023053;28;20253;-73
2022/04/23 12:16:41;;;;;;;8.35;2.92;;;23.50;99.90;;;;;;5028114;28;20871;-71
2022/04/23 12:19:13;;;;;;;5.38;2.92;;;23.50;99.90;;;;;;5036247;28;20184;-72
2022/04/23 12:21:56;;;;;;;7.47;3.00;;;23.60;99.90;;;;;;5038190;28;20275;-73
2022/04/23 12:24:34;;;;;;;7.93;3.00;;;23.60;99.90;;;;;;5047725;28;20183;-72
2022/04/23 12:27:03;;;;;;;6.80;2.67;;;23.60;99.90;;;;;;5049578;28;20191;-74
2022/04/23 12:41:16;;;;;;;6.85;2.50;;;23.80;99.90;;;;;;5013290;28;20239;-73
2022/04/23 12:43:43;;;;;;;6.47;2.47;;;23.80;99.90;;;;;;4992347;28;20227;-73
2022/04/23 12:46:13;;;;;;;6.22;2.70;;;23.70;99.90;;;;;;5015592;28;20276;-73
2022/04/23 12:49:00;;;;;;;9.63;2.50;;;23.80;99.90;;;;;;5034417;28;20187;-73
2022/04/23 12:51:29;;;;;;;5.93;2.55;;;23.70;99.90;;;;;;5025886;28;20212;-72
2022/04/23 12:53:57;;;;;;;8.93;2.83;;;23.70;99.90;;;;;;5051236;28;20180;-72
2022/04/23 12:56:35;;;;;;;6.70;3.33;;;23.80;99.90;;;;;;5038573;28;20194;-72
2022/04/23 12:59:04;;;;;;;8.43;3.42;;;23.80;99.90;;;;;;5036650;28;20180;-72
2022/04/23 13:01:32;;;;;;;6.10;2.40;;;23.80;99.90;;;;;;5045452;28;20281;-73
2022/04/23 13:04:03;;;;;;;7.05;2.53;;;23.80;99.90;;;;;;5055318;28;20722;-73
2022/04/23 13:09:15;;;;;;;5.57;2.28;;;24.00;99.90;;;;;;5082243;28;20289;-72
2022/04/23 13:11:42;;;;;;;7.15;2.58;;;23.90;99.90;;;;;;5073567;28;20631;-72
2022/04/23 13:14:09;;;;;;;6.57;2.40;;;23.90;99.90;;;;;;5066501;28;20951;-74
2022/04/23 13:16:39;;;;;;;7.78;3.00;;;23.80;99.90;;;;;;5059065;28;20179;-72
2022/04/23 13:19:07;;;;;;;6.70;2.60;;;23.90;99.90;;;;;;5071864;28;20186;-73
2022/04/23 13:21:36;;;;;;;3.63;2.50;;;23.90;99.90;;;;;;5077593;28;20186;-73
2022/04/23 13:24:06;;;;;;;4.20;2.60;;;23.90;99.90;;;;;;5067190;28;20190;-72
2022/04/23 13:26:34;;;;;;;6.13;2.50;;;23.90;99.90;;;;;;5056942;28;20184;-74
2022/04/23 13:29:07;;;;;;;5.28;2.70;;;23.90;99.90;;;;;;5074507;28;20258;-72
2022/04/23 13:31:39;;;;;;;6.28;3.00;;;23.90;99.90;;;;;;5065218;28;22096;-72
2022/04/23 13:34:07;;;;;;;8.13;2.42;;;23.90;99.90;;;;;;5050750;28;20316;-73
2022/04/23 13:36:34;;;;;;;5.25;2.25;;;23.90;99.90;;;;;;5053582;28;20274;-73
2022/04/23 13:39:02;;;;;;;6.22;2.80;;;23.90;99.90;;;;;;5048743;28;20189;-72
2022/04/23 13:41:29;;;;;;;11.35;3.17;;;23.90;99.90;;;;;;5047652;28;20195;-73